Time;durP1;ratioP1;P1;durP2;ratioP2;P2;SDS_P1;SDS_P2;PMS_P1;PMS_P2;Temp;Humidity;BMP_temperature;BMP_pressure;BME280_temperature;BME280_humidity;BME280_pressure;Samples;Min_cycle;Max_cycle;Signal;HPM_P1;HPM_P2
2022/03/17 00:00:23;;;;;;;10.67;9.67;;;15.00;99.90;;;;;;1014653;29;20031;-74
2022/03/17 00:00:56;;;;;;;9.90;9.00;;;14.90;99.90;;;;;;1014893;29;20107;-72
2022/03/17 00:01:26;;;;;;;8.80;7.97;;;14.90;99.90;;;;;;1018412;29;20020;-72
2022/03/17 00:01:57;;;;;;;9.23;8.43;;;14.90;99.90;;;;;;1018695;29;20066;-74
2022/03/17 00:02:27;;;;;;;9.27;8.40;;;14.90;99.90;;;;;;1018590;29;20102;-73
2022/03/17 00:02:58;;;;;;;8.67;7.83;;;14.90;99.90;;;;;;1018476;29;20020;-73
2022/03/17 00:03:28;;;;;;;9.57;8.67;;;14.90;99.90;;;;;;1018600;29;20043;-72
2022/03/17 00:03:59;;;;;;;8.93;8.13;;;14.90;99.90;;;;;;1019046;29;20078;-72
2022/03/17 00:04:31;;;;;;;8.83;7.87;;;14.90;99.90;;;;;;1018725;29;20178;-72
2022/03/17 00:05:03;;;;;;;8.77;7.97;;;14.90;99.90;;;;;;1019163;29;20016;-72
2022/03/17 00:05:33;;;;;;;9.68;8.77;;;14.90;99.90;;;;;;1018382;29;20074;-74
2022/03/17 00:06:05;;;;;;;10.10;8.83;;;14.90;99.90;;;;;;1018466;29;20079;-71
2022/03/17 00:06:36;;;;;;;8.70;7.90;;;14.90;99.90;;;;;;1018752;29;20020;-72
2022/03/17 00:07:07;;;;;;;8.73;7.87;;;14.90;99.90;;;;;;1015186;29;20028;-71
2022/03/17 00:07:39;;;;;;;8.00;7.22;;;14.90;99.90;;;;;;1018418;29;20062;-71
2022/03/17 00:08:09;;;;;;;7.72;7.03;;;14.90;99.90;;;;;;1017968;29;20103;-74
2022/03/17 00:08:40;;;;;;;7.97;7.27;;;14.90;99.90;;;;;;1014714;29;20031;-73
2022/03/17 00:09:11;;;;;;;8.45;7.65;;;14.90;99.90;;;;;;1015118;29;20790;-73
2022/03/17 00:09:41;;;;;;;9.37;8.47;;;14.90;99.90;;;;;;1018219;29;20027;-73
2022/03/17 00:10:14;;;;;;;8.70;7.80;;;14.90;99.90;;;;;;1017087;29;20045;-74
2022/03/17 00:10:44;;;;;;;9.82;8.82;;;14.90;99.90;;;;;;1014585;29;20024;-71
2022/03/17 00:11:15;;;;;;;8.73;7.93;;;14.90;99.90;;;;;;1016889;29;20024;-72
2022/03/17 00:11:46;;;;;;;9.50;8.60;;;14.90;99.90;;;;;;1018618;29;20015;-73
2022/03/17 00:12:16;;;;;;;8.93;8.03;;;14.90;99.90;;;;;;1018676;29;20518;-73
2022/03/17 00:12:48;;;;;;;9.03;7.67;;;14.90;99.90;;;;;;1018430;29;20166;-73
2022/03/17 00:13:19;;;;;;;8.40;7.40;;;14.90;99.90;;;;;;1018320;29;20020;-72
2022/03/17 00:13:50;;;;;;;9.00;8.15;;;14.90;99.90;;;;;;1018847;29;20027;-72
2022/03/17 00:14:21;;;;;;;8.00;7.30;;;14.90;99.90;;;;;;1018465;29;20019;-72
2022/03/17 00:14:51;;;;;;;9.75;8.85;;;14.90;99.90;;;;;;1014546;29;20084;-73
2022/03/17 00:15:22;;;;;;;9.67;8.77;;;14.90;99.90;;;;;;1014523;29;20167;-74
2022/03/17 00:15:52;;;;;;;8.60;7.80;;;14.90;99.90;;;;;;1015132;29;20032;-73
2022/03/17 00:16:23;;;;;;;8.77;7.97;;;14.90;99.90;;;;;;1018182;29;20482;-73
2022/03/17 00:16:53;;;;;;;9.23;8.33;;;14.90;99.90;;;;;;1019260;29;20026;-72
2022/03/17 00:17:25;;;;;;;10.23;9.23;;;14.90;99.90;;;;;;1018844;29;20059;-72
2022/03/17 00:17:55;;;;;;;9.50;8.00;;;14.90;99.90;;;;;;1019046;29;20024;-73
2022/03/17 00:18:26;;;;;;;7.47;6.77;;;14.90;99.90;;;;;;1018636;29;20066;-73
2022/03/17 00:18:56;;;;;;;9.17;8.33;;;14.90;99.90;;;;;;1018637;29;20585;-72
2022/03/17 00:19:27;;;;;;;10.50;9.13;;;14.90;99.90;;;;;;1018413;29;20031;-71
2022/03/17 00:19:57;;;;;;;9.73;8.13;;;14.90;99.90;;;;;;1018579;29;20028;-73
2022/03/17 00:20:28;;;;;;;8.70;7.90;;;14.90;99.90;;;;;;1018607;29;20071;-73
2022/03/17 00:20:58;;;;;;;8.77;7.97;;;14.90;99.90;;;;;;1013809;29;20074;-74
2022/03/17 00:21:29;;;;;;;10.70;9.70;;;14.90;99.90;;;;;;1017859;29;20023;-73
2022/03/17 00:21:59;;;;;;;9.23;8.33;;;14.90;99.90;;;;;;1018714;29;20039;-73
2022/03/17 00:22:30;;;;;;;8.70;7.90;;;14.90;99.90;;;;;;1018574;29;20057;-73
2022/03/17 00:23:01;;;;;;;10.37;9.27;;;14.90;99.90;;;;;;1018724;29;20016;-73
2022/03/17 00:23:31;;;;;;;10.30;8.75;;;14.90;99.90;;;;;;1018249;29;20016;-74
2022/03/17 00:24:03;;;;;;;9.30;8.40;;;14.90;99.90;;;;;;1018781;29;20047;-73
2022/03/17 00:24:37;;;;;;;9.48;8.52;;;14.90;99.90;;;;;;1019034;29;20055;-72
2022/03/17 00:25:08;;;;;;;8.18;7.38;;;14.90;99.90;;;;;;1018084;29;20020;-72
2022/03/17 00:25:39;;;;;;;7.80;7.03;;;14.80;99.90;;;;;;1014717;29;20032;-73
2022/03/17 00:26:10;;;;;;;7.77;7.07;;;14.80;99.90;;;;;;1016157;29;20020;-73
2022/03/17 00:26:41;;;;;;;8.75;8.02;;;14.80;99.90;;;;;;1018455;28;20023;-73
2022/03/17 00:27:12;;;;;;;8.47;7.67;;;14.80;99.90;;;;;;1018578;29;20153;-73
2022/03/17 00:27:43;;;;;;;9.90;8.90;;;14.80;99.90;;;;;;1018234;28;20043;-73
2022/03/17 00:28:13;;;;;;;12.40;9.27;;;14.80;99.90;;;;;;1018743;29;20030;-72
2022/03/17 00:28:44;;;;;;;9.73;8.83;;;14.80;99.90;;;;;;1014394;29;20578;-72
2022/03/17 00:29:19;;;;;;;10.13;9.13;;;14.80;99.90;;;;;;1014965;29;20020;-73
2022/03/17 00:29:50;;;;;;;9.30;8.40;;;;;;;;;;1022279;29;20019;-72
2022/03/17 00:30:21;;;;;;;7.55;6.85;;;14.80;99.90;;;;;;1021820;29;20034;-73
2022/03/17 00:30:51;;;;;;;8.60;7.80;;;14.80;99.90;;;;;;1016386;29;20031;-73
2022/03/17 00:31:22;;;;;;;9.80;8.90;;;14.80;99.90;;;;;;1017722;29;20107;-73
2022/03/17 00:31:52;;;;;;;8.73;7.83;;;14.80;99.90;;;;;;1018945;29;20016;-73
2022/03/17 00:32:26;;;;;;;9.03;7.93;;;14.80;99.90;;;;;;1019027;29;20036;-73
2022/03/17 00:32:56;;;;;;;9.23;8.32;;;14.80;99.90;;;;;;1018246;29;20070;-73
2022/03/17 00:33:27;;;;;;;9.73;8.83;;;14.80;99.90;;;;;;1014549;29;20086;-72
2022/03/17 00:33:57;;;;;;;9.37;8.47;;;14.80;99.90;;;;;;1012090;29;20060;-73
2022/03/17 00:34:28;;;;;;;9.90;9.00;;;14.80;99.90;;;;;;1010796;29;20020;-73
2022/03/17 00:35:48;;;;;;;8.70;7.88;;;14.80;99.90;;;;;;1014457;29;20039;-74
2022/03/17 00:36:18;;;;;;;9.87;8.87;;;14.80;99.90;;;;;;1016992;29;20111;-73
2022/03/17 00:36:49;;;;;;;11.13;10.03;;;14.80;99.90;;;;;;1018353;29;20031;-73
2022/03/17 00:37:19;;;;;;;10.20;9.30;;;14.80;99.90;;;;;;1018279;29;20094;-74
2022/03/17 00:37:50;;;;;;;10.43;9.50;;;14.80;99.90;;;;;;1014286;29;20471;-73
2022/03/17 00:38:21;;;;;;;8.93;8.13;;;14.80;99.90;;;;;;1014484;29;20214;-72
2022/03/17 00:38:51;;;;;;;9.67;8.77;;;14.70;99.90;;;;;;1018432;29;20047;-73
2022/03/17 00:39:22;;;;;;;9.70;8.73;;;14.70;99.90;;;;;;1017792;29;20024;-73
2022/03/17 00:39:53;;;;;;;9.50;8.47;;;14.70;99.90;;;;;;1018671;29;20051;-71
2022/03/17 00:40:24;;;;;;;11.38;10.27;;;14.70;99.90;;;;;;1017982;29;20518;-72
2022/03/17 00:40:54;;;;;;;10.07;8.97;;;14.70;99.90;;;;;;1014174;29;20753;-72
2022/03/17 00:41:25;;;;;;;9.53;8.63;;;14.70;99.90;;;;;;1014215;29;20115;-73
2022/03/17 00:41:55;;;;;;;9.73;8.93;;;14.70;99.90;;;;;;1014539;29;20052;-72
2022/03/17 00:42:27;;;;;;;9.50;8.57;;;14.70;99.90;;;;;;1018010;29;20027;-72
2022/03/17 00:42:59;;;;;;;11.02;9.88;;;14.70;99.90;;;;;;1016920;29;20098;-72
2022/03/17 00:43:30;;;;;;;9.82;8.93;;;14.70;99.90;;;;;;1014171;29;20055;-72
2022/03/17 00:44:00;;;;;;;10.40;9.43;;;14.70;99.90;;;;;;1014421;29;20032;-72
2022/03/17 00:44:31;;;;;;;9.53;8.63;;;14.70;99.90;;;;;;1014476;29;20028;-73
2022/03/17 00:45:02;;;;;;;9.90;9.00;;;14.70;99.90;;;;;;1018546;29;20027;-73
2022/03/17 00:45:32;;;;;;;9.45;8.55;;;14.70;99.90;;;;;;1018469;29;20024;-72
2022/03/17 00:46:03;;;;;;;9.63;8.73;;;14.70;99.90;;;;;;1017813;29;20020;-71
2022/03/17 00:46:33;;;;;;;9.97;9.07;;;14.70;99.90;;;;;;1018290;29;20027;-71
2022/03/17 00:47:04;;;;;;;9.43;8.53;;;14.70;99.90;;;;;;1018244;29;20451;-71
2022/03/17 00:47:35;;;;;;;8.93;8.03;;;;;;;;;;1018159;29;20023;-72
2022/03/17 00:48:06;;;;;;;9.20;8.30;;;14.70;99.90;;;;;;1018418;29;20024;-72
2022/03/17 00:48:37;;;;;;;9.13;8.33;;;14.70;99.90;;;;;;1018674;29;20024;-73
2022/03/17 00:49:08;;;;;;;9.10;8.20;;;14.70;99.90;;;;;;1018634;29;20561;-72
2022/03/17 00:49:39;;;;;;;8.80;7.90;;;14.70;99.90;;;;;;1018322;28;20111;-72
2022/03/17 00:50:10;;;;;;;9.50;8.70;;;14.70;99.90;;;;;;1018773;29;20016;-72
2022/03/17 00:50:41;;;;;;;8.57;7.78;;;14.70;99.90;;;;;;1018601;29;20019;-72
2022/03/17 00:51:11;;;;;;;9.00;8.10;;;14.70;99.90;;;;;;1018156;29;20035;-72
2022/03/17 00:51:42;;;;;;;9.23;8.33;;;14.70;99.90;;;;;;1014026;29;20074;-71
2022/03/17 00:52:14;;;;;;;9.50;8.60;;;14.70;99.90;;;;;;1010418;29;20460;-72
2022/03/17 00:52:44;;;;;;;8.68;7.88;;;14.70;99.90;;;;;;1010842;29;20333;-73
2022/03/17 00:53:15;;;;;;;9.83;8.93;;;14.70;99.90;;;;;;1014916;29;20543;-73
2022/03/17 00:53:46;;;;;;;9.43;8.53;;;14.70;99.90;;;;;;1018555;29;20016;-73
2022/03/17 00:54:16;;;;;;;9.87;8.87;;;14.70;99.90;;;;;;1018872;29;20034;-74
2022/03/17 00:54:47;;;;;;;10.07;9.07;;;14.70;99.90;;;;;;1018765;29;20055;-73
2022/03/17 00:55:18;;;;;;;10.13;9.13;;;14.70;99.90;;;;;;1016302;29;20694;-73
2022/03/17 00:55:48;;;;;;;10.47;8.50;;;14.70;99.90;;;;;;1014301;29;20016;-73
2022/03/17 00:56:19;;;;;;;10.33;8.77;;;14.70;99.90;;;;;;1016813;29;20016;-73
2022/03/17 00:56:49;;;;;;;9.27;8.37;;;14.70;99.90;;;;;;1018190;29;20090;-74
2022/03/17 00:57:20;;;;;;;9.37;8.47;;;14.70;99.90;;;;;;1017962;29;20090;-74
2022/03/17 00:57:51;;;;;;;9.77;8.87;;;14.70;99.90;;;;;;1018647;29;20083;-74
2022/03/17 00:58:22;;;;;;;10.43;9.33;;;14.70;99.90;;;;;;1018129;29;20130;-73
2022/03/17 00:58:53;;;;;;;9.13;8.23;;;14.70;99.90;;;;;;1018288;29;20451;-73
2022/03/17 00:59:23;;;;;;;9.73;8.83;;;14.70;99.90;;;;;;1018104;29;20511;-73
2022/03/17 00:59:54;;;;;;;9.63;8.63;;;14.60;99.90;;;;;;1018518;29;20015;-74
2022/03/17 01:00:24;;;;;;;10.30;9.40;;;14.60;99.90;;;;;;1018380;29;20416;-73
2022/03/17 01:00:56;;;;;;;9.00;8.20;;;14.60;99.90;;;;;;1018821;29;20028;-73
2022/03/17 01:01:26;;;;;;;10.30;9.32;;;14.60;99.90;;;;;;1018001;29;20107;-73
2022/03/17 01:01:57;;;;;;;8.63;7.77;;;14.60;99.90;;;;;;1014149;29;20032;-73
2022/03/17 01:02:27;;;;;;;8.70;7.90;;;14.60;99.90;;;;;;1010350;29;20040;-73
2022/03/17 01:02:58;;;;;;;9.87;8.97;;;14.60;99.90;;;;;;1010460;29;20025;-73
2022/03/17 01:03:28;;;;;;;10.23;9.33;;;14.60;99.90;;;;;;1010329;29;20027;-72
2022/03/17 01:03:59;;;;;;;9.50;8.40;;;14.60;99.90;;;;;;1014286;29;20020;-73
2022/03/17 01:04:30;;;;;;;8.63;7.67;;;14.60;99.90;;;;;;1014221;29;20188;-75
2022/03/17 01:05:00;;;;;;;9.77;8.87;;;14.60;99.90;;;;;;1010344;29;20626;-73
2022/03/17 01:05:31;;;;;;;9.80;8.50;;;14.60;99.90;;;;;;1010360;29;20104;-72
2022/03/17 01:06:02;;;;;;;9.77;8.77;;;14.60;99.90;;;;;;1014386;29;20880;-73
2022/03/17 01:06:32;;;;;;;10.83;9.80;;;14.60;99.90;;;;;;1014388;29;20028;-73
2022/03/17 01:07:03;;;;;;;9.00;8.20;;;14.60;99.90;;;;;;1014188;29;20035;-73
2022/03/17 01:07:34;;;;;;;9.48;8.57;;;14.60;99.90;;;;;;1014425;29;20070;-72
2022/03/17 01:08:05;;;;;;;10.23;9.30;;;14.60;99.90;;;;;;1018222;29;20459;-72
2022/03/17 01:08:36;;;;;;;9.60;8.70;;;14.60;99.90;;;;;;1018113;29;20517;-72
2022/03/17 01:09:06;;;;;;;9.30;8.40;;;14.60;99.90;;;;;;1018180;29;20074;-72
2022/03/17 01:09:37;;;;;;;10.47;9.53;;;14.60;99.90;;;;;;1014035;29;20101;-74
2022/03/17 01:10:10;;;;;;;9.67;8.83;;;14.60;99.90;;;;;;1015102;29;20024;-73
2022/03/17 01:10:42;;;;;;;9.02;8.13;;;14.60;99.90;;;;;;1014486;29;20913;-73
2022/03/17 01:11:13;;;;;;;10.70;9.60;;;14.60;99.90;;;;;;1012605;29;20024;-73
2022/03/17 01:11:44;;;;;;;11.10;9.43;;;14.60;99.90;;;;;;1018456;29;20063;-72
2022/03/17 01:12:15;;;;;;;9.85;8.95;;;14.60;99.90;;;;;;1014449;29;20036;-71
2022/03/17 01:12:46;;;;;;;9.60;8.70;;;14.60;99.90;;;;;;1010861;29;20139;-74
2022/03/17 01:13:17;;;;;;;9.07;8.18;;;14.60;99.90;;;;;;1014593;29;20033;-73
2022/03/17 01:13:47;;;;;;;9.50;8.70;;;14.60;99.90;;;;;;1014765;29;20032;-72
2022/03/17 01:14:18;;;;;;;10.13;9.23;;;14.60;99.90;;;;;;1018485;29;20048;-74
2022/03/17 01:14:49;;;;;;;9.10;8.30;;;14.60;99.90;;;;;;1014505;29;20017;-73
2022/03/17 01:15:19;;;;;;;9.20;8.27;;;14.60;99.90;;;;;;1014483;29;20021;-72
2022/03/17 01:15:50;;;;;;;10.50;9.00;;;14.60;99.90;;;;;;1014350;29;20028;-75
2022/03/17 01:16:20;;;;;;;9.57;8.67;;;14.60;99.90;;;;;;1014634;29;20096;-75
2022/03/17 01:16:51;;;;;;;10.97;9.97;;;14.60;99.90;;;;;;1018682;29;20103;-74
2022/03/17 01:17:23;;;;;;;9.30;8.40;;;14.60;99.90;;;;;;1018476;29;20776;-75
2022/03/17 01:17:53;;;;;;;10.30;9.30;;;14.60;99.90;;;;;;1018394;29;20047;-73
2022/03/17 01:18:24;;;;;;;10.30;9.30;;;14.60;99.90;;;;;;1014375;29;20028;-74
2022/03/17 01:18:54;;;;;;;9.73;8.83;;;14.60;99.90;;;;;;1014794;29;20120;-74
2022/03/17 01:19:26;;;;;;;9.60;8.67;;;14.60;99.90;;;;;;1014071;29;20637;-74
2022/03/17 01:19:57;;;;;;;9.88;8.88;;;14.60;99.90;;;;;;1014173;29;20464;-73
2022/03/17 01:20:29;;;;;;;10.37;9.17;;;14.60;99.90;;;;;;1018060;29;20020;-73
2022/03/17 01:20:59;;;;;;;9.63;8.75;;;14.60;99.90;;;;;;1018067;28;20111;-73
2022/03/17 01:21:30;;;;;;;10.30;9.30;;;14.50;99.90;;;;;;1014401;29;20018;-73
2022/03/17 01:22:00;;;;;;;10.27;9.27;;;14.60;99.90;;;;;;1014526;29;20036;-73
2022/03/17 01:22:32;;;;;;;8.90;8.10;;;14.60;99.90;;;;;;1014324;29;20040;-73
2022/03/17 01:23:04;;;;;;;8.35;7.55;;;14.60;99.90;;;;;;1015385;29;20119;-73
2022/03/17 01:23:35;;;;;;;9.73;8.82;;;14.60;99.90;;;;;;1015475;29;20013;-72
2022/03/17 01:24:06;;;;;;;10.13;9.13;;;14.60;99.90;;;;;;1018527;29;20039;-72
2022/03/17 01:24:36;;;;;;;9.83;8.83;;;14.50;99.90;;;;;;1015460;29;20630;-74
2022/03/17 01:25:07;;;;;;;10.70;9.63;;;14.50;99.90;;;;;;1016709;29;20043;-72
2022/03/17 01:25:38;;;;;;;11.70;9.98;;;14.50;99.90;;;;;;1013907;29;20024;-72
2022/03/17 01:26:08;;;;;;;10.67;9.67;;;14.50;99.90;;;;;;1015060;29;20111;-72
2022/03/17 01:26:39;;;;;;;11.73;9.50;;;14.50;99.90;;;;;;1014033;29;20055;-73
2022/03/17 01:27:10;;;;;;;10.60;9.67;;;14.50;99.90;;;;;;1010237;29;20036;-72
2022/03/17 01:27:40;;;;;;;9.47;8.57;;;14.50;99.90;;;;;;1013655;29;20029;-72
2022/03/17 01:28:11;;;;;;;10.13;9.23;;;14.50;99.90;;;;;;1014351;29;20420;-71
2022/03/17 01:28:41;;;;;;;9.80;8.90;;;14.50;99.90;;;;;;1016490;29;20019;-72
2022/03/17 01:29:13;;;;;;;9.67;8.77;;;14.50;99.90;;;;;;1014791;29;20024;-72
2022/03/17 01:29:43;;;;;;;8.60;7.80;;;14.50;99.90;;;;;;1014647;29;20013;-72
2022/03/17 01:30:14;;;;;;;9.47;8.57;;;14.50;99.90;;;;;;1014235;29;20099;-73
2022/03/17 01:30:45;;;;;;;9.02;8.23;;;14.50;99.90;;;;;;1015196;29;20460;-72
2022/03/17 01:31:17;;;;;;;8.53;7.73;;;14.50;99.90;;;;;;1018360;29;20818;-72
2022/03/17 01:31:47;;;;;;;9.30;8.40;;;14.50;99.90;;;;;;1018425;29;20087;-73
2022/03/17 01:32:19;;;;;;;9.33;8.23;;;14.50;99.90;;;;;;1014420;29;20665;-72
2022/03/17 01:32:49;;;;;;;8.98;8.07;;;14.50;99.90;;;;;;1016619;29;20034;-72
2022/03/17 01:33:20;;;;;;;10.57;9.57;;;14.60;99.90;;;;;;1014863;29;20270;-72
2022/03/17 01:33:51;;;;;;;9.70;8.80;;;14.50;99.90;;;;;;1016734;29;20026;-73
2022/03/17 01:34:21;;;;;;;10.10;9.10;;;14.60;99.90;;;;;;1019162;29;20410;-73
2022/03/17 01:34:52;;;;;;;10.50;8.40;;;14.60;99.90;;;;;;1019485;29;20467;-73
2022/03/17 01:35:22;;;;;;;10.17;9.17;;;14.50;99.90;;;;;;1018942;28;20478;-72
2022/03/17 01:35:53;;;;;;;11.17;9.97;;;14.50;99.90;;;;;;1019145;29;20027;-72
2022/03/17 01:36:23;;;;;;;9.00;8.10;;;14.50;99.90;;;;;;1018984;29;20019;-73
2022/03/17 01:36:54;;;;;;;8.80;8.00;;;14.50;99.90;;;;;;1015396;29;20080;-73
2022/03/17 01:37:24;;;;;;;10.03;9.10;;;14.50;99.90;;;;;;1014825;29;20118;-73
2022/03/17 01:37:57;;;;;;;10.83;9.83;;;14.50;99.90;;;;;;1014878;29;20114;-73
2022/03/17 01:38:27;;;;;;;9.80;8.80;;;14.50;99.90;;;;;;1015435;29;20612;-73
2022/03/17 01:38:58;;;;;;;10.07;8.40;;;14.50;99.90;;;;;;1013950;29;20666;-73
2022/03/17 01:39:28;;;;;;;10.57;9.53;;;14.50;99.90;;;;;;1014242;29;20111;-72
2022/03/17 01:39:59;;;;;;;10.53;9.53;;;14.50;99.90;;;;;;1014840;29;20112;-73
2022/03/17 01:40:29;;;;;;;10.67;9.63;;;14.50;99.90;;;;;;1015190;29;20059;-72
2022/03/17 01:41:00;;;;;;;11.13;10.03;;;14.50;99.90;;;;;;1019150;29;20020;-73
2022/03/17 01:41:30;;;;;;;9.20;8.37;;;14.50;99.90;;;;;;1018592;29;20054;-73
2022/03/17 01:42:07;;;;;;;11.00;9.30;;;14.50;99.90;;;;;;1015825;29;20523;-72
2022/03/17 01:42:39;;;;;;;9.90;9.00;;;14.50;99.90;;;;;;1014915;29;20111;-73
2022/03/17 01:43:10;;;;;;;10.73;9.65;;;14.50;99.90;;;;;;1015131;29;20119;-72
2022/03/17 01:43:40;;;;;;;10.23;9.27;;;14.50;99.90;;;;;;1014821;29;20013;-72
2022/03/17 01:44:11;;;;;;;11.37;10.27;;;14.50;99.90;;;;;;1015790;29;20013;-72
2022/03/17 01:44:42;;;;;;;11.50;10.50;;;14.50;99.90;;;;;;1019179;29;20773;-72
2022/03/17 01:45:12;;;;;;;10.70;9.70;;;14.50;99.90;;;;;;1016766;29;20072;-73
2022/03/17 01:45:43;;;;;;;11.50;10.40;;;14.50;99.90;;;;;;1017498;29;20065;-74
2022/03/17 01:46:15;;;;;;;11.27;10.10;;;14.50;99.90;;;;;;1016197;29;20060;-72
2022/03/17 01:47:36;;;;;;;10.15;9.15;;;14.50;99.90;;;;;;1019074;29;20038;-73
2022/03/17 01:48:07;;;;;;;11.32;10.13;;;14.50;99.90;;;;;;1019578;29;20110;-74
2022/03/17 01:48:38;;;;;;;10.43;9.40;;;14.50;99.90;;;;;;1018815;29;20024;-71
2022/03/17 01:49:08;;;;;;;13.17;10.27;;;14.40;99.90;;;;;;1019060;29;20023;-74
2022/03/17 01:49:40;;;;;;;11.23;10.13;;;14.40;99.90;;;;;;1016741;29;20312;-74
2022/03/17 01:50:13;;;;;;;11.93;10.82;;;14.40;99.90;;;;;;1019074;29;20024;-73
2022/03/17 01:50:44;;;;;;;10.90;9.90;;;14.40;99.90;;;;;;1019426;29;20028;-72
2022/03/17 01:51:15;;;;;;;10.90;9.80;;;14.40;99.90;;;;;;1019768;29;20114;-73
2022/03/17 01:51:48;;;;;;;11.43;10.33;;;14.40;99.90;;;;;;1018746;29;20012;-74
2022/03/17 01:52:19;;;;;;;10.68;9.57;;;14.40;99.90;;;;;;1019073;29;20102;-72
2022/03/17 01:52:49;;;;;;;10.53;9.53;;;14.40;99.90;;;;;;1015188;29;20453;-72
2022/03/17 01:53:22;;;;;;;10.63;9.63;;;14.40;99.90;;;;;;1015587;29;20047;-72
2022/03/17 01:53:53;;;;;;;10.25;9.25;;;14.40;99.90;;;;;;1016537;29;20020;-73
2022/03/17 01:54:24;;;;;;;10.50;9.43;;;14.40;99.90;;;;;;1015122;29;20036;-73
2022/03/17 01:54:56;;;;;;;10.68;9.68;;;14.40;99.90;;;;;;1016665;29;20031;-72
2022/03/17 01:55:27;;;;;;;11.23;10.13;;;14.40;99.90;;;;;;1019341;29;20673;-73
2022/03/17 01:55:59;;;;;;;10.60;9.60;;;14.40;99.90;;;;;;1018913;29;20467;-74
2022/03/17 01:56:30;;;;;;;11.90;10.75;;;14.40;99.90;;;;;;1019148;29;20020;-73
2022/03/17 01:57:02;;;;;;;11.00;9.90;;;14.40;99.90;;;;;;1018950;29;20020;-73
2022/03/17 01:57:33;;;;;;;10.95;9.80;;;14.40;99.90;;;;;;1012937;29;20031;-72
2022/03/17 01:58:03;;;;;;;11.48;10.38;;;14.40;99.90;;;;;;1014837;29;20018;-73
2022/03/17 01:58:34;;;;;;;12.10;10.90;;;14.40;99.90;;;;;;1015116;29;20505;-73
2022/03/17 01:59:04;;;;;;;10.77;9.77;;;14.40;99.90;;;;;;1015461;29;20048;-73
2022/03/17 01:59:37;;;;;;;11.57;10.00;;;14.40;99.90;;;;;;1018958;29;20415;-73
2022/03/17 02:00:13;;;;;;;11.05;10.05;;;14.40;99.90;;;;;;1019776;29;20031;-72
2022/03/17 02:00:45;;;;;;;11.70;10.52;;;14.40;99.90;;;;;;1015576;29;20483;-72
2022/03/17 02:01:16;;;;;;;11.35;10.25;;;14.40;99.90;;;;;;1015245;29;20406;-73
2022/03/17 02:01:46;;;;;;;11.53;10.43;;;14.40;99.90;;;;;;1016838;29;20577;-72
2022/03/17 02:02:18;;;;;;;12.20;11.10;;;14.40;99.90;;;;;;1019132;29;20051;-73
2022/03/17 02:02:50;;;;;;;10.90;9.90;;;14.40;99.90;;;;;;1015416;29;20088;-72
2022/03/17 02:03:20;;;;;;;11.95;10.80;;;14.40;99.90;;;;;;1018787;29;20039;-72
2022/03/17 02:03:52;;;;;;;9.97;8.97;;;14.40;99.90;;;;;;1015251;29;20056;-72
2022/03/17 02:04:24;;;;;;;12.90;11.70;;;14.40;99.90;;;;;;1011479;29;20028;-71
2022/03/17 02:04:54;;;;;;;11.52;10.48;;;14.40;99.90;;;;;;1015150;29;20024;-71
2022/03/17 02:05:25;;;;;;;10.70;9.60;;;14.40;99.90;;;;;;1015042;29;20182;-72
2022/03/17 02:05:56;;;;;;;10.27;9.27;;;14.40;99.90;;;;;;1015638;29;20051;-73
2022/03/17 02:06:26;;;;;;;11.83;10.73;;;14.40;99.90;;;;;;1015196;29;20020;-72
2022/03/17 02:06:57;;;;;;;12.67;11.47;;;14.40;99.90;;;;;;1011178;29;20024;-73
2022/03/17 02:07:27;;;;;;;9.70;8.80;;;14.40;99.90;;;;;;1015063;29;20103;-73
2022/03/17 02:07:58;;;;;;;10.73;9.63;;;14.40;99.90;;;;;;1015550;29;20594;-73
2022/03/17 02:08:28;;;;;;;11.73;10.53;;;14.40;99.90;;;;;;1015183;29;20031;-73
2022/03/17 02:08:59;;;;;;;10.23;9.23;;;14.40;99.90;;;;;;1017873;29;20519;-72
2022/03/17 02:09:30;;;;;;;11.00;9.10;;;14.40;99.90;;;;;;1011208;29;20262;-73
2022/03/17 02:10:01;;;;;;;10.77;9.77;;;14.40;99.90;;;;;;1011429;29;20283;-73
2022/03/17 02:13:08;;;;;;;11.00;9.90;;;14.40;99.90;;;;;;1019165;29;20071;-73
2022/03/17 02:13:09;;;;;;;11.70;10.45;;;14.40;99.90;;;;;;1015671;29;20039;-73
2022/03/17 02:13:41;;;;;;;10.45;9.35;;;14.40;99.90;;;;;;1017816;29;20020;-73
2022/03/17 02:14:14;;;;;;;10.70;9.27;;;14.40;99.90;;;;;;1014997;29;20031;-73
2022/03/17 02:14:53;;;;;;;9.98;9.00;;;14.40;99.90;;;;;;1015228;29;20024;-72
2022/03/17 02:15:27;;;;;;;10.82;9.82;;;14.40;99.90;;;;;;1014970;29;20040;-73
2022/03/17 02:16:02;;;;;;;11.48;10.25;;;14.40;99.90;;;;;;1015289;29;20052;-72
2022/03/17 02:16:32;;;;;;;12.27;10.60;;;14.40;99.90;;;;;;1015114;29;20713;-72
2022/03/17 02:17:03;;;;;;;10.53;9.47;;;14.40;99.90;;;;;;1018469;29;20701;-72
2022/03/17 02:17:43;;;;;;;11.00;9.97;;;14.40;99.90;;;;;;1018923;29;20095;-73
2022/03/17 02:18:16;;;;;;;10.32;9.32;;;14.40;99.90;;;;;;1016691;29;20499;-72
2022/03/17 02:18:47;;;;;;;10.80;9.80;;;14.40;99.90;;;;;;1015129;29;20024;-71
2022/03/17 02:19:21;;;;;;;10.33;9.33;;;14.40;99.90;;;;;;1015059;29;20021;-72
2022/03/17 02:19:52;;;;;;;10.75;9.60;;;14.40;99.90;;;;;;1015327;29;20035;-74
2022/03/17 02:20:24;;;;;;;11.73;10.63;;;14.40;99.90;;;;;;1011504;29;20047;-72
2022/03/17 02:20:59;;;;;;;10.27;9.27;;;14.40;99.90;;;;;;1012216;29;20366;-72
2022/03/17 02:21:29;;;;;;;9.63;8.73;;;14.40;99.90;;;;;;1015000;29;20521;-73
2022/03/17 02:22:00;;;;;;;11.53;10.43;;;14.40;99.90;;;;;;1017840;29;20498;-72
2022/03/17 02:22:31;;;;;;;11.37;10.20;;;14.40;99.90;;;;;;1018803;29;20027;-74
2022/03/17 02:25:34;;;;;;;10.45;9.45;;;14.40;99.90;;;;;;1015294;29;20067;-73
2022/03/17 02:26:05;;;;;;;11.60;10.57;;;14.40;99.90;;;;;;1015680;29;20024;-73
2022/03/17 02:26:39;;;;;;;10.98;9.68;;;14.40;99.90;;;;;;1015070;29;20099;-73
2022/03/17 02:27:11;;;;;;;12.20;10.40;;;14.40;99.90;;;;;;1020447;29;20053;-73
2022/03/17 02:27:45;;;;;;;10.70;9.70;;;14.30;99.90;;;;;;1014306;29;20116;-73
2022/03/17 02:28:16;;;;;;;10.30;9.30;;;14.30;99.90;;;;;;1016090;29;20466;-72
2022/03/17 02:28:47;;;;;;;10.90;9.80;;;14.30;99.90;;;;;;1018855;29;20054;-73
2022/03/17 02:29:17;;;;;;;11.83;9.60;;;14.30;99.90;;;;;;1015054;29;20026;-72
2022/03/17 02:29:48;;;;;;;11.67;10.57;;;14.30;99.90;;;;;;1011038;29;20084;-73
2022/03/17 02:30:20;;;;;;;10.87;9.73;;;14.30;99.90;;;;;;1014777;29;20115;-73
2022/03/17 02:30:51;;;;;;;9.60;8.70;;;14.30;99.90;;;;;;1015116;29;20028;-73
2022/03/17 02:31:23;;;;;;;10.70;9.60;;;14.30;99.90;;;;;;1018993;29;20492;-72
2022/03/17 02:31:55;;;;;;;11.63;10.55;;;14.30;99.90;;;;;;1019031;29;20114;-74
2022/03/17 02:32:26;;;;;;;11.35;10.23;;;14.30;99.90;;;;;;1019123;29;20763;-73
2022/03/17 02:33:11;;;;;;;9.95;9.05;;;14.30;99.90;;;;;;1018648;29;20795;-74
2022/03/17 02:33:42;;;;;;;11.75;9.73;;;14.30;99.90;;;;;;1017158;29;20034;-72
2022/03/17 02:34:16;;;;;;;12.02;10.80;;;14.30;99.90;;;;;;1014902;29;20020;-72
2022/03/17 02:34:47;;;;;;;11.10;10.10;;;14.30;99.90;;;;;;1015133;29;20016;-72
2022/03/17 02:35:22;;;;;;;11.03;9.93;;;14.30;99.90;;;;;;1016767;29;20035;-73
2022/03/17 02:35:57;;;;;;;10.60;9.50;;;14.30;99.90;;;;;;1018885;28;20020;-74
2022/03/17 02:36:28;;;;;;;10.88;9.82;;;14.30;99.90;;;;;;1019008;29;20116;-73
2022/03/17 02:37:00;;;;;;;11.13;9.68;;;14.30;99.90;;;;;;1018729;29;20027;-74
2022/03/17 02:37:31;;;;;;;10.48;9.48;;;14.30;99.90;;;;;;1018474;29;20125;-72
2022/03/17 02:38:03;;;;;;;12.25;10.82;;;14.30;99.90;;;;;;1018913;29;20047;-72
2022/03/17 02:38:34;;;;;;;11.15;10.05;;;14.30;99.90;;;;;;1018979;29;20071;-73
2022/03/17 02:39:06;;;;;;;11.73;10.53;;;14.30;99.90;;;;;;1018901;29;20039;-73
2022/03/17 02:39:37;;;;;;;12.60;11.40;;;14.30;99.90;;;;;;1014598;29;20071;-74
2022/03/17 02:40:10;;;;;;;11.43;10.32;;;14.20;99.90;;;;;;1015639;29;20072;-72
2022/03/17 02:40:43;;;;;;;11.73;10.52;;;14.20;99.90;;;;;;1018689;29;20626;-74
2022/03/17 02:41:21;;;;;;;11.98;10.77;;;14.20;99.90;;;;;;1018783;29;20106;-73
2022/03/17 02:41:54;;;;;;;10.82;9.82;;;14.20;99.90;;;;;;1018809;29;20323;-73
2022/03/17 02:42:25;;;;;;;10.75;9.68;;;14.20;99.90;;;;;;1018472;29;20586;-73
2022/03/17 02:42:57;;;;;;;12.17;10.53;;;14.20;99.90;;;;;;1018830;29;20895;-73
2022/03/17 02:43:27;;;;;;;12.10;10.90;;;14.20;99.90;;;;;;1018751;29;20008;-73
2022/03/17 02:43:58;;;;;;;11.73;10.50;;;14.20;99.90;;;;;;1018436;29;20020;-73
2022/03/17 02:44:28;;;;;;;12.37;11.17;;;14.20;99.90;;;;;;1014872;29;20052;-73
2022/03/17 02:45:00;;;;;;;12.73;10.53;;;14.20;99.90;;;;;;1014559;29;20047;-73
2022/03/17 02:45:31;;;;;;;10.95;9.82;;;14.20;99.90;;;;;;1014913;29;20098;-73
2022/03/17 02:46:01;;;;;;;11.87;10.77;;;14.20;99.90;;;;;;1017183;29;20375;-75
2022/03/17 02:46:32;;;;;;;11.60;10.50;;;14.20;99.90;;;;;;1018996;29;20024;-73
2022/03/17 02:47:03;;;;;;;12.20;11.00;;;14.20;99.90;;;;;;1018532;29;20467;-72
2022/03/17 02:47:34;;;;;;;12.65;10.77;;;14.20;99.90;;;;;;1018733;29;20074;-72